Список аэропортов
Фактическая погода:

26 апреля, 12:00
Температура: +10°C (+8.0*)
Ветер: юго-западный 4 м/с
Давление: *748 мм
неб. облачность
180 м
разорв. обл.
кучево-дождевые 690 м
слаб. ливневый дождь
Время (МСК)Темп. СВетерВлажностьДавлениеОблачностьОсадки
09:00+9Ю, 4 м/с89%1000 гПаоблачнодождь
10:00+9Ю, 3 м/с90%999 гПаоблачнодождь
11:00+10ЮВ, 3 м/с91%998 гПаоблачнодождь
12:00+10ЮВ, 4 м/с90%997 гПаоблачнодождь
13:00+11Ю, 4 м/с89%997 гПаоблачнодождь
14:00+12З, 7 м/с86%997 гПаоблачнодождь
15:00+12З, 7 м/с83%997 гПаоблачнодождь
16:00+11З, 7 м/с85%998 гПаоблачнодождь
17:00+10З, 9 м/с80%999 гПаоблачнодождь
18:00+9З, 10 м/с76%1001 гПаоблачно
19:00+9З, 9 м/с68%1002 гПаоблачно
20:00+9З, 8 м/с65%1003 гПаоблачно
21:00+9З, 7 м/с64%1004 гПамалооблачно
22:00+8З, 6 м/с66%1004 гПамалооблачно
23:00+8З, 7 м/с67%1005 гПаясно
27 апреля
00:00+8З, 6 м/с68%1006 гПаясно
01:00+7З, 5 м/с70%1006 гПамалооблачно
02:00+7З, 5 м/с74%1007 гПаясно
03:00+6З, 4 м/с79%1007 гПас прояснениями
04:00+5ЮЗ, 4 м/с85%1008 гПамалооблачно
05:00+4ЮЗ, 4 м/с90%1008 гПамалооблачно
06:00+4ЮЗ, 4 м/с89%1009 гПас прояснениями
07:00+6ЮЗ, 4 м/с80%1009 гПаоблачно
08:00+8ЮЗ, 4 м/с72%1009 гПас прояснениями
09:00+9ЮЗ, 4 м/с69%1010 гПаясно
10:00+11ЮЗ, 4 м/с64%1010 гПас прояснениями
11:00+13ЮЗ, 6 м/с60%1010 гПас прояснениями
12:00+13З, 5 м/с58%1009 гПаоблачно
13:00+14З, 5 м/с55%1009 гПаоблачно
14:00+14ЮЗ, 4 м/с53%1009 гПаоблачно
15:00+15ЮЗ, 4 м/с53%1008 гПаоблачно
16:00+14ЮЗ, 3 м/с55%1008 гПаоблачносл. дождь
17:00+14ЮЗ, 3 м/с61%1008 гПаоблачносл. дождь
18:00+14З, 4 м/с62%1009 гПаоблачносл. дождь
19:00+12З, 3 м/с68%1009 гПас прояснениями
20:00+11З, 2 м/с76%1009 гПаоблачно
21:00+10З, 2 м/с84%1010 гПаясно
22:00+8З, 3 м/с89%1010 гПаясно
23:00+7З, 3 м/с91%1010 гПаясно
28 апреля
00:00+6З, 2 м/с96%1011 гПаясно
01:00+5З, 2 м/с96%1011 гПаясно
02:00+4З, 2 м/с96%1011 гПаясно
03:00+4З, 2 м/с97%1011 гПаясно
04:00+3З, 2 м/с98%1012 гПамалооблачно
05:00+3З, 3 м/с97%1012 гПаясно
06:00+3З, 3 м/с95%1012 гПаясно
07:00+5З, 4 м/с90%1013 гПаясно
08:00+7З, 4 м/с79%1013 гПаясно
09:00+10СЗ, 6 м/с66%1014 гПаясно